sensor_id;sensor_type;location;lat;lon;timestamp;temperature;humidity
25582;DHT22;13462;50.764;4.332;2024-02-21T00:00:07;9.20;99.90
25582;DHT22;13462;50.764;4.332;2024-02-21T00:02:33;9.20;99.90
25582;DHT22;13462;50.764;4.332;2024-02-21T00:04:58;9.20;99.90
25582;DHT22;13462;50.764;4.332;2024-02-21T00:07:24;9.20;99.90
25582;DHT22;13462;50.764;4.332;2024-02-21T00:09:50;9.20;99.90
25582;DHT22;13462;50.764;4.332;2024-02-21T00:12:15;9.20;99.90
25582;DHT22;13462;50.764;4.332;2024-02-21T00:14:41;9.20;99.90
25582;DHT22;13462;50.764;4.332;2024-02-21T00:17:07;9.20;99.90
25582;DHT22;13462;50.764;4.332;2024-02-21T00:19:34;9.20;99.90
25582;DHT22;13462;50.764;4.332;2024-02-21T00:21:59;9.30;99.90
25582;DHT22;13462;50.764;4.332;2024-02-21T00:24:25;9.30;99.90
25582;DHT22;13462;50.764;4.332;2024-02-21T00:26:50;9.20;99.90
25582;DHT22;13462;50.764;4.332;2024-02-21T00:29:16;9.20;99.90
25582;DHT22;13462;50.764;4.332;2024-02-21T00:31:42;9.20;99.90
25582;DHT22;13462;50.764;4.332;2024-02-21T00:34:07;9.20;99.90
25582;DHT22;13462;50.764;4.332;2024-02-21T00:36:33;9.20;99.90
25582;DHT22;13462;50.764;4.332;2024-02-21T00:38:58;9.20;99.90
25582;DHT22;13462;50.764;4.332;2024-02-21T00:41:24;9.20;99.90
25582;DHT22;13462;50.764;4.332;2024-02-21T00:43:49;9.20;99.90
25582;DHT22;13462;50.764;4.332;2024-02-21T00:46:15;9.20;99.90
25582;DHT22;13462;50.764;4.332;2024-02-21T00:48:41;9.20;99.90
25582;DHT22;13462;50.764;4.332;2024-02-21T00:51:06;9.20;99.90
25582;DHT22;13462;50.764;4.332;2024-02-21T00:53:32;9.10;99.90
25582;DHT22;13462;50.764;4.332;2024-02-21T00:55:58;9.00;99.90
25582;DHT22;13462;50.764;4.332;2024-02-21T00:58:23;9.00;99.90
25582;DHT22;13462;50.764;4.332;2024-02-21T01:00:49;9.00;99.90
25582;DHT22;13462;50.764;4.332;2024-02-21T01:03:14;9.00;99.90
25582;DHT22;13462;50.764;4.332;2024-02-21T01:05:40;9.00;99.90
25582;DHT22;13462;50.764;4.332;2024-02-21T01:08:06;9.00;99.90
25582;DHT22;13462;50.764;4.332;2024-02-21T01:10:31;9.10;99.90
25582;DHT22;13462;50.764;4.332;2024-02-21T01:12:57;9.20;99.90
25582;DHT22;13462;50.764;4.332;2024-02-21T01:15:23;9.10;99.90
25582;DHT22;13462;50.764;4.332;2024-02-21T01:17:48;9.10;99.90
25582;DHT22;13462;50.764;4.332;2024-02-21T01:20:16;9.00;99.90
25582;DHT22;13462;50.764;4.332;2024-02-21T01:22:42;9.00;99.90
25582;DHT22;13462;50.764;4.332;2024-02-21T01:25:08;9.10;99.90
25582;DHT22;13462;50.764;4.332;2024-02-21T01:27:34;8.90;99.90
25582;DHT22;13462;50.764;4.332;2024-02-21T01:29:59;8.90;99.90
25582;DHT22;13462;50.764;4.332;2024-02-21T01:32:25;8.90;99.90
25582;DHT22;13462;50.764;4.332;2024-02-21T01:34:51;8.90;99.90
25582;DHT22;13462;50.764;4.332;2024-02-21T01:37:16;8.80;99.90
25582;DHT22;13462;50.764;4.332;2024-02-21T01:39:42;8.80;99.90
25582;DHT22;13462;50.764;4.332;2024-02-21T01:42:08;8.80;99.90
25582;DHT22;13462;50.764;4.332;2024-02-21T01:44:34;8.70;99.90
25582;DHT22;13462;50.764;4.332;2024-02-21T01:47:00;8.70;99.90
25582;DHT22;13462;50.764;4.332;2024-02-21T01:49:26;8.60;99.90
25582;DHT22;13462;50.764;4.332;2024-02-21T01:51:52;8.60;99.90
25582;DHT22;13462;50.764;4.332;2024-02-21T01:54:18;8.60;99.90
25582;DHT22;13462;50.764;4.332;2024-02-21T01:56:45;8.60;99.90
25582;DHT22;13462;50.764;4.332;2024-02-21T01:59:12;8.60;99.90
25582;DHT22;13462;50.764;4.332;2024-02-21T02:01:39;8.70;99.90
25582;DHT22;13462;50.764;4.332;2024-02-21T02:04:05;8.70;99.90
25582;DHT22;13462;50.764;4.332;2024-02-21T02:06:31;8.60;99.90
25582;DHT22;13462;50.764;4.332;2024-02-21T02:08:57;8.60;99.90
25582;DHT22;13462;50.764;4.332;2024-02-21T02:11:23;8.50;99.90
25582;DHT22;13462;50.764;4.332;2024-02-21T02:13:48;8.60;99.90
25582;DHT22;13462;50.764;4.332;2024-02-21T02:16:14;8.60;99.90
25582;DHT22;13462;50.764;4.332;2024-02-21T02:18:39;8.70;99.90
25582;DHT22;13462;50.764;4.332;2024-02-21T02:21:10;8.70;99.90
25582;DHT22;13462;50.764;4.332;2024-02-21T02:23:39;8.70;99.90
25582;DHT22;13462;50.764;4.332;2024-02-21T02:26:05;8.70;99.90
25582;DHT22;13462;50.764;4.332;2024-02-21T02:28:32;8.80;99.90
25582;DHT22;13462;50.764;4.332;2024-02-21T02:30:58;8.70;99.90
25582;DHT22;13462;50.764;4.332;2024-02-21T02:33:23;8.70;99.90
25582;DHT22;13462;50.764;4.332;2024-02-21T02:35:49;8.80;99.90
25582;DHT22;13462;50.764;4.332;2024-02-21T02:38:15;8.80;99.90
25582;DHT22;13462;50.764;4.332;2024-02-21T02:40:41;8.80;99.90
25582;DHT22;13462;50.764;4.332;2024-02-21T02:43:06;8.80;99.90
25582;DHT22;13462;50.764;4.332;2024-02-21T02:45:32;8.80;99.90
25582;DHT22;13462;50.764;4.332;2024-02-21T02:47:58;8.80;99.90
25582;DHT22;13462;50.764;4.332;2024-02-21T02:50:25;8.90;99.90
25582;DHT22;13462;50.764;4.332;2024-02-21T02:52:52;8.90;99.90
25582;DHT22;13462;50.764;4.332;2024-02-21T02:55:18;9.00;99.90
25582;DHT22;13462;50.764;4.332;2024-02-21T02:57:43;9.10;99.90
25582;DHT22;13462;50.764;4.332;2024-02-21T03:00:11;9.00;99.90
25582;DHT22;13462;50.764;4.332;2024-02-21T03:02:38;8.90;99.90
25582;DHT22;13462;50.764;4.332;2024-02-21T03:05:15;9.00;99.90
25582;DHT22;13462;50.764;4.332;2024-02-21T03:07:41;9.00;99.90
25582;DHT22;13462;50.764;4.332;2024-02-21T03:10:08;9.10;99.90
25582;DHT22;13462;50.764;4.332;2024-02-21T03:12:34;9.00;99.90
25582;DHT22;13462;50.764;4.332;2024-02-21T03:14:59;9.00;99.90
25582;DHT22;13462;50.764;4.332;2024-02-21T03:17:25;9.00;99.90
25582;DHT22;13462;50.764;4.332;2024-02-21T03:19:52;9.10;99.90
25582;DHT22;13462;50.764;4.332;2024-02-21T03:22:18;9.10;99.90
25582;DHT22;13462;50.764;4.332;2024-02-21T03:24:44;9.10;99.90
25582;DHT22;13462;50.764;4.332;2024-02-21T03:27:09;9.00;99.90
25582;DHT22;13462;50.764;4.332;2024-02-21T03:29:35;9.00;99.90
25582;DHT22;13462;50.764;4.332;2024-02-21T03:32:00;9.00;99.90
25582;DHT22;13462;50.764;4.332;2024-02-21T03:34:26;9.00;99.90
25582;DHT22;13462;50.764;4.332;2024-02-21T03:36:51;9.00;99.90
25582;DHT22;13462;50.764;4.332;2024-02-21T03:39:17;9.10;99.90
25582;DHT22;13462;50.764;4.332;2024-02-21T03:41:43;9.10;99.90
25582;DHT22;13462;50.764;4.332;2024-02-21T03:44:09;9.20;99.90
25582;DHT22;13462;50.764;4.332;2024-02-21T03:46:34;9.10;99.90
25582;DHT22;13462;50.764;4.332;2024-02-21T03:49:00;9.10;99.90
25582;DHT22;13462;50.764;4.332;2024-02-21T03:51:26;8.90;99.90
25582;DHT22;13462;50.764;4.332;2024-02-21T03:53:52;9.00;99.90
25582;DHT22;13462;50.764;4.332;2024-02-21T03:56:17;8.90;99.90
25582;DHT22;13462;50.764;4.332;2024-02-21T03:58:43;8.90;99.90
25582;DHT22;13462;50.764;4.332;2024-02-21T04:01:08;8.70;99.90
25582;DHT22;13462;50.764;4.332;2024-02-21T04:03:34;8.70;99.90
25582;DHT22;13462;50.764;4.332;2024-02-21T04:06:00;8.70;99.90
25582;DHT22;13462;50.764;4.332;2024-02-21T04:08:25;8.70;99.90
25582;DHT22;13462;50.764;4.332;2024-02-21T04:10:51;8.70;99.90
25582;DHT22;13462;50.764;4.332;2024-02-21T04:13:17;8.80;99.90
25582;DHT22;13462;50.764;4.332;2024-02-21T04:15:42;8.70;99.90
25582;DHT22;13462;50.764;4.332;2024-02-21T04:18:08;8.70;99.90
25582;DHT22;13462;50.764;4.332;2024-02-21T04:20:34;8.60;99.90
25582;DHT22;13462;50.764;4.332;2024-02-21T04:23:00;8.70;99.90
25582;DHT22;13462;50.764;4.332;2024-02-21T04:25:25;8.60;99.90
25582;DHT22;13462;50.764;4.332;2024-02-21T04:27:52;8.70;99.90
25582;DHT22;13462;50.764;4.332;2024-02-21T04:30:17;8.60;99.90
25582;DHT22;13462;50.764;4.332;2024-02-21T04:32:43;8.50;99.90
25582;DHT22;13462;50.764;4.332;2024-02-21T04:35:09;8.50;99.90
25582;DHT22;13462;50.764;4.332;2024-02-21T04:37:34;8.60;99.90
25582;DHT22;13462;50.764;4.332;2024-02-21T04:40:00;8.60;99.90
25582;DHT22;13462;50.764;4.332;2024-02-21T04:42:26;8.70;99.90
25582;DHT22;13462;50.764;4.332;2024-02-21T04:44:52;8.70;99.90
25582;DHT22;13462;50.764;4.332;2024-02-21T04:47:18;8.70;99.90
25582;DHT22;13462;50.764;4.332;2024-02-21T04:49:45;8.70;99.90
25582;DHT22;13462;50.764;4.332;2024-02-21T04:52:11;8.70;99.90
25582;DHT22;13462;50.764;4.332;2024-02-21T04:54:37;8.60;99.90
25582;DHT22;13462;50.764;4.332;2024-02-21T04:57:02;8.70;99.90
25582;DHT22;13462;50.764;4.332;2024-02-21T04:59:28;8.70;99.90
25582;DHT22;13462;50.764;4.332;2024-02-21T05:01:54;8.70;99.90
25582;DHT22;13462;50.764;4.332;2024-02-21T05:04:20;8.70;99.90
25582;DHT22;13462;50.764;4.332;2024-02-21T05:06:46;8.70;99.90
25582;DHT22;13462;50.764;4.332;2024-02-21T05:09:12;8.80;99.90
25582;DHT22;13462;50.764;4.332;2024-02-21T05:11:38;8.70;99.90
25582;DHT22;13462;50.764;4.332;2024-02-21T05:14:04;8.70;99.90
25582;DHT22;13462;50.764;4.332;2024-02-21T05:16:30;8.80;99.90
25582;DHT22;13462;50.764;4.332;2024-02-21T05:18:56;8.70;99.90
25582;DHT22;13462;50.764;4.332;2024-02-21T05:21:25;8.70;99.90
25582;DHT22;13462;50.764;4.332;2024-02-21T05:23:51;8.70;99.90
25582;DHT22;13462;50.764;4.332;2024-02-21T05:26:20;8.70;99.90
25582;DHT22;13462;50.764;4.332;2024-02-21T05:28:47;8.60;99.90
25582;DHT22;13462;50.764;4.332;2024-02-21T05:31:12;8.70;99.90
25582;DHT22;13462;50.764;4.332;2024-02-21T05:33:39;8.80;99.90
25582;DHT22;13462;50.764;4.332;2024-02-21T05:36:05;8.80;99.90
25582;DHT22;13462;50.764;4.332;2024-02-21T05:38:31;8.80;99.90
25582;DHT22;13462;50.764;4.332;2024-02-21T05:40:56;8.80;99.90
25582;DHT22;13462;50.764;4.332;2024-02-21T05:43:22;8.80;99.90
25582;DHT22;13462;50.764;4.332;2024-02-21T05:45:48;8.70;99.90
25582;DHT22;13462;50.764;4.332;2024-02-21T05:48:14;8.70;99.90
25582;DHT22;13462;50.764;4.332;2024-02-21T05:50:39;8.70;99.90
25582;DHT22;13462;50.764;4.332;2024-02-21T05:53:05;8.70;99.90
25582;DHT22;13462;50.764;4.332;2024-02-21T05:55:30;8.70;99.90
25582;DHT22;13462;50.764;4.332;2024-02-21T05:57:56;8.70;99.90
25582;DHT22;13462;50.764;4.332;2024-02-21T06:00:22;8.70;99.90
25582;DHT22;13462;50.764;4.332;2024-02-21T06:02:47;8.70;99.90
25582;DHT22;13462;50.764;4.332;2024-02-21T06:05:13;8.80;99.90
25582;DHT22;13462;50.764;4.332;2024-02-21T06:07:38;8.90;99.90
25582;DHT22;13462;50.764;4.332;2024-02-21T06:10:06;8.90;99.90
25582;DHT22;13462;50.764;4.332;2024-02-21T06:12:32;8.90;99.90
25582;DHT22;13462;50.764;4.332;2024-02-21T06:14:57;8.90;99.90
25582;DHT22;13462;50.764;4.332;2024-02-21T06:17:23;9.00;99.90
25582;DHT22;13462;50.764;4.332;2024-02-21T06:19:48;9.00;99.90
25582;DHT22;13462;50.764;4.332;2024-02-21T06:22:14;8.80;99.90
25582;DHT22;13462;50.764;4.332;2024-02-21T06:24:39;8.80;99.90
25582;DHT22;13462;50.764;4.332;2024-02-21T06:27:05;8.70;99.90
25582;DHT22;13462;50.764;4.332;2024-02-21T06:29:32;8.80;99.90
25582;DHT22;13462;50.764;4.332;2024-02-21T06:31:58;8.70;99.90
25582;DHT22;13462;50.764;4.332;2024-02-21T06:34:24;8.80;99.90
25582;DHT22;13462;50.764;4.332;2024-02-21T06:36:50;8.80;99.90
25582;DHT22;13462;50.764;4.332;2024-02-21T06:39:16;8.80;99.90
25582;DHT22;13462;50.764;4.332;2024-02-21T06:41:42;8.80;99.90
25582;DHT22;13462;50.764;4.332;2024-02-21T06:44:07;8.90;99.90
25582;DHT22;13462;50.764;4.332;2024-02-21T06:46:33;8.90;99.90
25582;DHT22;13462;50.764;4.332;2024-02-21T06:48:59;8.80;99.90
25582;DHT22;13462;50.764;4.332;2024-02-21T06:51:31;8.80;99.90
25582;DHT22;13462;50.764;4.332;2024-02-21T06:53:57;8.80;99.90
25582;DHT22;13462;50.764;4.332;2024-02-21T06:56:24;8.70;99.90
25582;DHT22;13462;50.764;4.332;2024-02-21T06:58:54;8.60;99.90
25582;DHT22;13462;50.764;4.332;2024-02-21T07:01:20;8.50;99.90
25582;DHT22;13462;50.764;4.332;2024-02-21T07:03:46;8.50;99.90
25582;DHT22;13462;50.764;4.332;2024-02-21T07:06:11;8.50;99.90
25582;DHT22;13462;50.764;4.332;2024-02-21T07:08:38;8.50;99.90
25582;DHT22;13462;50.764;4.332;2024-02-21T07:11:04;8.40;99.90
25582;DHT22;13462;50.764;4.332;2024-02-21T07:13:30;8.40;99.90
25582;DHT22;13462;50.764;4.332;2024-02-21T07:15:55;8.30;99.90
25582;DHT22;13462;50.764;4.332;2024-02-21T07:18:21;8.30;99.90
25582;DHT22;13462;50.764;4.332;2024-02-21T07:20:46;8.30;99.90
25582;DHT22;13462;50.764;4.332;2024-02-21T07:23:12;8.30;99.90
25582;DHT22;13462;50.764;4.332;2024-02-21T07:25:38;8.30;99.90
25582;DHT22;13462;50.764;4.332;2024-02-21T07:28:05;8.40;99.90
25582;DHT22;13462;50.764;4.332;2024-02-21T07:30:31;8.40;99.90
25582;DHT22;13462;50.764;4.332;2024-02-21T07:32:56;8.40;99.90
25582;DHT22;13462;50.764;4.332;2024-02-21T07:35:22;8.40;99.90
25582;DHT22;13462;50.764;4.332;2024-02-21T07:37:47;8.50;99.90
25582;DHT22;13462;50.764;4.332;2024-02-21T07:40:13;8.50;99.90
25582;DHT22;13462;50.764;4.332;2024-02-21T07:42:39;8.40;99.90
25582;DHT22;13462;50.764;4.332;2024-02-21T07:45:07;8.50;99.90
25582;DHT22;13462;50.764;4.332;2024-02-21T07:47:32;8.50;99.90
25582;DHT22;13462;50.764;4.332;2024-02-21T07:49:58;8.60;99.90
25582;DHT22;13462;50.764;4.332;2024-02-21T07:52:23;8.70;99.90
25582;DHT22;13462;50.764;4.332;2024-02-21T07:54:50;8.80;99.90
25582;DHT22;13462;50.764;4.332;2024-02-21T07:57:16;8.80;99.90
25582;DHT22;13462;50.764;4.332;2024-02-21T07:59:42;8.90;99.90
25582;DHT22;13462;50.764;4.332;2024-02-21T08:02:08;8.90;99.90
25582;DHT22;13462;50.764;4.332;2024-02-21T08:04:33;8.90;99.90
25582;DHT22;13462;50.764;4.332;2024-02-21T08:06:59;8.90;99.90
25582;DHT22;13462;50.764;4.332;2024-02-21T08:09:28;8.90;99.90
25582;DHT22;13462;50.764;4.332;2024-02-21T08:11:54;8.80;99.90
25582;DHT22;13462;50.764;4.332;2024-02-21T08:14:21;8.70;99.90
25582;DHT22;13462;50.764;4.332;2024-02-21T08:16:46;8.80;99.90
25582;DHT22;13462;50.764;4.332;2024-02-21T08:19:12;8.80;99.90
25582;DHT22;13462;50.764;4.332;2024-02-21T08:21:38;8.90;99.90
25582;DHT22;13462;50.764;4.332;2024-02-21T08:24:04;9.00;99.90
25582;DHT22;13462;50.764;4.332;2024-02-21T08:26:29;8.90;99.90
25582;DHT22;13462;50.764;4.332;2024-02-21T08:28:56;8.90;99.90
25582;DHT22;13462;50.764;4.332;2024-02-21T08:31:25;8.90;99.90
25582;DHT22;13462;50.764;4.332;2024-02-21T08:33:59;9.00;99.90
25582;DHT22;13462;50.764;4.332;2024-02-21T08:36:32;8.90;99.90
25582;DHT22;13462;50.764;4.332;2024-02-21T08:38:58;9.00;99.90
25582;DHT22;13462;50.764;4.332;2024-02-21T08:41:24;9.10;99.90
25582;DHT22;13462;50.764;4.332;2024-02-21T08:43:54;9.10;99.90
25582;DHT22;13462;50.764;4.332;2024-02-21T08:46:26;9.00;99.90
25582;DHT22;13462;50.764;4.332;2024-02-21T08:48:52;9.10;99.90
25582;DHT22;13462;50.764;4.332;2024-02-21T08:51:18;9.10;99.90
25582;DHT22;13462;50.764;4.332;2024-02-21T08:53:44;9.20;99.90
25582;DHT22;13462;50.764;4.332;2024-02-21T08:56:10;9.20;99.90
25582;DHT22;13462;50.764;4.332;2024-02-21T08:58:36;9.20;99.90
25582;DHT22;13462;50.764;4.332;2024-02-21T09:01:03;9.20;99.90
25582;DHT22;13462;50.764;4.332;2024-02-21T09:03:31;9.30;99.90
25582;DHT22;13462;50.764;4.332;2024-02-21T09:05:57;9.30;99.90
25582;DHT22;13462;50.764;4.332;2024-02-21T09:08:23;9.40;99.90
25582;DHT22;13462;50.764;4.332;2024-02-21T09:10:49;9.40;99.90
25582;DHT22;13462;50.764;4.332;2024-02-21T09:13:15;9.50;99.90
25582;DHT22;13462;50.764;4.332;2024-02-21T09:15:42;9.60;99.90
25582;DHT22;13462;50.764;4.332;2024-02-21T09:18:07;9.60;99.90
25582;DHT22;13462;50.764;4.332;2024-02-21T09:20:33;9.60;99.90
25582;DHT22;13462;50.764;4.332;2024-02-21T09:22:58;9.60;99.90
25582;DHT22;13462;50.764;4.332;2024-02-21T09:25:24;9.60;99.90
25582;DHT22;13462;50.764;4.332;2024-02-21T09:27:50;9.70;99.90
25582;DHT22;13462;50.764;4.332;2024-02-21T09:30:17;9.80;99.90
25582;DHT22;13462;50.764;4.332;2024-02-21T09:32:43;9.80;99.90
25582;DHT22;13462;50.764;4.332;2024-02-21T09:35:08;9.80;99.90
25582;DHT22;13462;50.764;4.332;2024-02-21T09:37:35;9.80;99.90
25582;DHT22;13462;50.764;4.332;2024-02-21T09:40:01;9.90;99.90
25582;DHT22;13462;50.764;4.332;2024-02-21T09:42:40;10.00;99.90
25582;DHT22;13462;50.764;4.332;2024-02-21T09:45:09;10.30;99.90
25582;DHT22;13462;50.764;4.332;2024-02-21T09:50:18;10.20;99.90
25582;DHT22;13462;50.764;4.332;2024-02-21T09:52:47;10.20;99.90
25582;DHT22;13462;50.764;4.332;2024-02-21T09:55:13;10.20;99.90
25582;DHT22;13462;50.764;4.332;2024-02-21T09:57:40;10.10;99.90
25582;DHT22;13462;50.764;4.332;2024-02-21T10:00:06;10.10;99.90
25582;DHT22;13462;50.764;4.332;2024-02-21T10:02:34;10.10;99.90
25582;DHT22;13462;50.764;4.332;2024-02-21T10:05:00;10.10;99.90
25582;DHT22;13462;50.764;4.332;2024-02-21T10:07:26;10.20;99.90
25582;DHT22;13462;50.764;4.332;2024-02-21T10:10:05;10.30;99.90
25582;DHT22;13462;50.764;4.332;2024-02-21T10:12:31;10.40;99.90
25582;DHT22;13462;50.764;4.332;2024-02-21T10:15:04;10.50;99.90
25582;DHT22;13462;50.764;4.332;2024-02-21T10:17:30;10.60;99.90
25582;DHT22;13462;50.764;4.332;2024-02-21T10:20:02;10.50;99.90
25582;DHT22;13462;50.764;4.332;2024-02-21T10:22:31;10.60;99.90
25582;DHT22;13462;50.764;4.332;2024-02-21T10:25:07;10.70;99.90
25582;DHT22;13462;50.764;4.332;2024-02-21T10:27:33;10.70;99.90
25582;DHT22;13462;50.764;4.332;2024-02-21T10:29:59;10.70;99.90
25582;DHT22;13462;50.764;4.332;2024-02-21T10:32:24;10.80;99.90
25582;DHT22;13462;50.764;4.332;2024-02-21T10:35:01;10.90;99.90
25582;DHT22;13462;50.764;4.332;2024-02-21T10:37:27;11.00;99.90
25582;DHT22;13462;50.764;4.332;2024-02-21T10:39:53;10.80;99.90
25582;DHT22;13462;50.764;4.332;2024-02-21T10:42:21;10.50;99.90
25582;DHT22;13462;50.764;4.332;2024-02-21T10:44:52;10.40;99.90
25582;DHT22;13462;50.764;4.332;2024-02-21T10:47:19;10.50;99.90
25582;DHT22;13462;50.764;4.332;2024-02-21T10:49:53;10.50;99.90
25582;DHT22;13462;50.764;4.332;2024-02-21T10:52:38;10.50;99.90
25582;DHT22;13462;50.764;4.332;2024-02-21T10:55:19;10.50;99.90
25582;DHT22;13462;50.764;4.332;2024-02-21T10:57:47;10.70;99.90
25582;DHT22;13462;50.764;4.332;2024-02-21T11:00:15;10.70;99.90
25582;DHT22;13462;50.764;4.332;2024-02-21T11:02:43;10.50;99.90
25582;DHT22;13462;50.764;4.332;2024-02-21T11:05:08;10.50;99.90
25582;DHT22;13462;50.764;4.332;2024-02-21T11:07:36;10.40;99.90
25582;DHT22;13462;50.764;4.332;2024-02-21T11:10:02;10.40;99.90
25582;DHT22;13462;50.764;4.332;2024-02-21T11:12:32;10.30;99.90
25582;DHT22;13462;50.764;4.332;2024-02-21T11:15:07;10.30;99.90
25582;DHT22;13462;50.764;4.332;2024-02-21T11:17:33;10.30;99.90
25582;DHT22;13462;50.764;4.332;2024-02-21T11:20:10;10.40;99.90
25582;DHT22;13462;50.764;4.332;2024-02-21T11:22:43;10.40;99.90
25582;DHT22;13462;50.764;4.332;2024-02-21T11:25:09;10.20;99.90
25582;DHT22;13462;50.764;4.332;2024-02-21T11:27:37;10.30;99.90
25582;DHT22;13462;50.764;4.332;2024-02-21T11:30:05;10.20;99.90
25582;DHT22;13462;50.764;4.332;2024-02-21T11:32:31;10.20;99.90
25582;DHT22;13462;50.764;4.332;2024-02-21T11:34:57;10.10;99.90
25582;DHT22;13462;50.764;4.332;2024-02-21T11:37:31;10.10;99.90
25582;DHT22;13462;50.764;4.332;2024-02-21T11:40:03;10.00;99.90
25582;DHT22;13462;50.764;4.332;2024-02-21T11:42:29;10.20;99.90
25582;DHT22;13462;50.764;4.332;2024-02-21T11:44:56;10.20;99.90
25582;DHT22;13462;50.764;4.332;2024-02-21T11:47:22;10.30;99.90
25582;DHT22;13462;50.764;4.332;2024-02-21T11:49:48;10.30;99.90
25582;DHT22;13462;50.764;4.332;2024-02-21T11:52:16;10.20;99.90
25582;DHT22;13462;50.764;4.332;2024-02-21T11:54:44;10.20;99.90
25582;DHT22;13462;50.764;4.332;2024-02-21T11:57:10;10.10;99.90
25582;DHT22;13462;50.764;4.332;2024-02-21T11:59:36;10.10;99.90
25582;DHT22;13462;50.764;4.332;2024-02-21T12:02:03;10.10;99.90
25582;DHT22;13462;50.764;4.332;2024-02-21T12:04:29;10.10;99.90
25582;DHT22;13462;50.764;4.332;2024-02-21T12:06:56;10.10;99.90
25582;DHT22;13462;50.764;4.332;2024-02-21T12:09:23;10.20;99.90
25582;DHT22;13462;50.764;4.332;2024-02-21T12:12:05;10.20;99.90
25582;DHT22;13462;50.764;4.332;2024-02-21T12:14:32;10.10;99.90
25582;DHT22;13462;50.764;4.332;2024-02-21T12:17:02;9.90;99.90
25582;DHT22;13462;50.764;4.332;2024-02-21T12:19:32;9.90;99.90
25582;DHT22;13462;50.764;4.332;2024-02-21T12:21:59;9.80;99.90
25582;DHT22;13462;50.764;4.332;2024-02-21T12:24:26;9.90;99.90
25582;DHT22;13462;50.764;4.332;2024-02-21T12:26:52;9.90;99.90
25582;DHT22;13462;50.764;4.332;2024-02-21T12:29:22;10.00;99.90
25582;DHT22;13462;50.764;4.332;2024-02-21T12:31:50;10.10;99.90
25582;DHT22;13462;50.764;4.332;2024-02-21T12:34:16;10.30;99.90
25582;DHT22;13462;50.764;4.332;2024-02-21T12:36:44;10.30;99.90
25582;DHT22;13462;50.764;4.332;2024-02-21T12:39:13;10.40;99.90
25582;DHT22;13462;50.764;4.332;2024-02-21T12:41:39;10.50;99.90
25582;DHT22;13462;50.764;4.332;2024-02-21T12:44:06;10.60;99.90
25582;DHT22;13462;50.764;4.332;2024-02-21T12:46:36;10.50;99.90
25582;DHT22;13462;50.764;4.332;2024-02-21T12:49:03;10.50;99.90
25582;DHT22;13462;50.764;4.332;2024-02-21T12:51:29;10.50;99.90
25582;DHT22;13462;50.764;4.332;2024-02-21T12:53:55;10.50;99.90
25582;DHT22;13462;50.764;4.332;2024-02-21T12:56:21;10.40;99.90
25582;DHT22;13462;50.764;4.332;2024-02-21T12:58:46;10.40;99.90
25582;DHT22;13462;50.764;4.332;2024-02-21T13:01:12;10.50;99.90
25582;DHT22;13462;50.764;4.332;2024-02-21T13:03:38;10.40;99.90
25582;DHT22;13462;50.764;4.332;2024-02-21T13:06:04;10.40;99.90
25582;DHT22;13462;50.764;4.332;2024-02-21T13:08:30;10.50;99.90
25582;DHT22;13462;50.764;4.332;2024-02-21T13:10:55;10.40;99.90
25582;DHT22;13462;50.764;4.332;2024-02-21T13:13:21;10.40;99.90
25582;DHT22;13462;50.764;4.332;2024-02-21T13:15:47;10.40;99.90
25582;DHT22;13462;50.764;4.332;2024-02-21T13:18:12;10.50;99.90
25582;DHT22;13462;50.764;4.332;2024-02-21T13:20:39;10.50;99.90
25582;DHT22;13462;50.764;4.332;2024-02-21T13:23:04;10.40;99.90
25582;DHT22;13462;50.764;4.332;2024-02-21T13:25:30;10.30;99.90
25582;DHT22;13462;50.764;4.332;2024-02-21T13:27:56;10.30;99.90
25582;DHT22;13462;50.764;4.332;2024-02-21T13:30:22;10.50;99.90
25582;DHT22;13462;50.764;4.332;2024-02-21T13:32:48;10.50;99.90
25582;DHT22;13462;50.764;4.332;2024-02-21T13:35:14;10.50;99.90
25582;DHT22;13462;50.764;4.332;2024-02-21T13:37:40;10.40;99.90
25582;DHT22;13462;50.764;4.332;2024-02-21T13:40:07;10.30;99.90
25582;DHT22;13462;50.764;4.332;2024-02-21T13:42:35;10.20;99.90
25582;DHT22;13462;50.764;4.332;2024-02-21T13:45:00;10.30;99.90
25582;DHT22;13462;50.764;4.332;2024-02-21T13:47:27;10.20;99.90
25582;DHT22;13462;50.764;4.332;2024-02-21T13:49:53;10.30;99.90
25582;DHT22;13462;50.764;4.332;2024-02-21T13:52:18;10.30;99.90
25582;DHT22;13462;50.764;4.332;2024-02-21T13:54:46;10.30;99.90
25582;DHT22;13462;50.764;4.332;2024-02-21T13:57:12;10.30;99.90
25582;DHT22;13462;50.764;4.332;2024-02-21T13:59:38;10.30;99.90
25582;DHT22;13462;50.764;4.332;2024-02-21T14:02:05;10.20;99.90
25582;DHT22;13462;50.764;4.332;2024-02-21T14:04:33;10.20;99.90
25582;DHT22;13462;50.764;4.332;2024-02-21T14:06:58;10.20;99.90
25582;DHT22;13462;50.764;4.332;2024-02-21T14:09:24;10.20;99.90
25582;DHT22;13462;50.764;4.332;2024-02-21T14:11:50;10.10;99.90
25582;DHT22;13462;50.764;4.332;2024-02-21T14:14:15;10.20;99.90
25582;DHT22;13462;50.764;4.332;2024-02-21T14:16:41;10.10;99.90
25582;DHT22;13462;50.764;4.332;2024-02-21T14:19:07;10.00;99.90
25582;DHT22;13462;50.764;4.332;2024-02-21T14:21:34;10.00;99.90
25582;DHT22;13462;50.764;4.332;2024-02-21T14:24:03;10.00;99.90
25582;DHT22;13462;50.764;4.332;2024-02-21T14:26:29;9.90;99.90
25582;DHT22;13462;50.764;4.332;2024-02-21T14:28:56;9.90;99.90
25582;DHT22;13462;50.764;4.332;2024-02-21T14:31:22;9.90;99.90
25582;DHT22;13462;50.764;4.332;2024-02-21T14:33:48;9.80;99.90
25582;DHT22;13462;50.764;4.332;2024-02-21T14:36:14;9.80;99.90
25582;DHT22;13462;50.764;4.332;2024-02-21T14:38:41;9.80;99.90
25582;DHT22;13462;50.764;4.332;2024-02-21T14:41:07;9.70;99.90
25582;DHT22;13462;50.764;4.332;2024-02-21T14:43:33;9.70;99.90
25582;DHT22;13462;50.764;4.332;2024-02-21T14:46:00;9.80;99.90
25582;DHT22;13462;50.764;4.332;2024-02-21T14:48:27;9.70;99.90
25582;DHT22;13462;50.764;4.332;2024-02-21T14:50:54;9.70;99.90
25582;DHT22;13462;50.764;4.332;2024-02-21T14:53:19;9.70;99.90
25582;DHT22;13462;50.764;4.332;2024-02-21T14:55:45;9.70;99.90
25582;DHT22;13462;50.764;4.332;2024-02-21T14:58:11;9.60;99.90
25582;DHT22;13462;50.764;4.332;2024-02-21T15:00:36;9.60;99.90
25582;DHT22;13462;50.764;4.332;2024-02-21T15:03:02;9.50;99.90
25582;DHT22;13462;50.764;4.332;2024-02-21T15:05:28;9.50;99.90
25582;DHT22;13462;50.764;4.332;2024-02-21T15:07:56;9.40;99.90
25582;DHT22;13462;50.764;4.332;2024-02-21T15:10:23;9.40;99.90
25582;DHT22;13462;50.764;4.332;2024-02-21T15:12:49;9.40;99.90
25582;DHT22;13462;50.764;4.332;2024-02-21T15:15:14;9.40;99.90
25582;DHT22;13462;50.764;4.332;2024-02-21T15:17:40;9.40;99.90
25582;DHT22;13462;50.764;4.332;2024-02-21T15:20:06;9.40;99.90
25582;DHT22;13462;50.764;4.332;2024-02-21T15:22:36;9.40;99.90
25582;DHT22;13462;50.764;4.332;2024-02-21T15:25:02;9.40;99.90
25582;DHT22;13462;50.764;4.332;2024-02-21T15:27:30;9.30;99.90
25582;DHT22;13462;50.764;4.332;2024-02-21T15:29:56;9.30;99.90
25582;DHT22;13462;50.764;4.332;2024-02-21T15:32:23;9.30;99.90
25582;DHT22;13462;50.764;4.332;2024-02-21T15:34:48;9.20;99.90
25582;DHT22;13462;50.764;4.332;2024-02-21T15:37:14;9.20;99.90
25582;DHT22;13462;50.764;4.332;2024-02-21T15:39:42;9.20;99.90